Terminal Aerodrome Forecast
Issued by NWS Shreveport, LA

Home | Current Version | Previous Version | Text Only | Print | Product List | Glossary On
Versions: 1 2 3 4 5 6 7 8 9 10 11 12 13 14 15 16 17 18
132
FTUS44 KSHV 190525
TAFLFK
TAF
KLFK 190525Z 1906/2006 VRB03KT P6SM OVC060
     FM191500 15005KT P6SM OVC045
     FM200000 14006KT P6SM OVC040
      TEMPO 2002/2006 OVC030=

USA.gov is the U.S. government's official web portal to all federal, state and local government web resources and services.